createdAt,value
2018-07-30T00:02:30.835Z,23.80
2018-07-30T00:05:00.207Z,23.80
2018-07-30T00:07:29.587Z,23.80
2018-07-30T00:09:58.942Z,23.70
2018-07-30T00:12:28.397Z,23.70
2018-07-30T00:14:57.537Z,23.70
2018-07-30T00:17:26.516Z,23.70
2018-07-30T00:19:55.592Z,23.70
2018-07-30T00:22:24.693Z,23.70
2018-07-30T00:24:53.648Z,23.60
2018-07-30T00:27:22.786Z,23.60
2018-07-30T00:29:51.785Z,23.50
2018-07-30T00:32:20.757Z,23.50
2018-07-30T00:34:50.800Z,23.50
2018-07-30T00:37:19.797Z,23.50
2018-07-30T00:39:48.794Z,23.40
2018-07-30T00:42:17.827Z,23.40
2018-07-30T00:44:46.813Z,23.30
2018-07-30T00:47:15.785Z,23.30
2018-07-30T00:49:44.896Z,23.20
2018-07-30T00:52:13.987Z,23.20
2018-07-30T00:54:42.992Z,23.20
2018-07-30T00:57:12.001Z,23.10
2018-07-30T00:59:40.994Z,23.10
2018-07-30T01:02:10.177Z,23.00
2018-07-30T01:04:39.125Z,22.90
2018-07-30T01:07:08.277Z,22.80
2018-07-30T01:09:37.270Z,22.60
2018-07-30T01:12:06.397Z,22.50
2018-07-30T01:14:35.457Z,22.40
2018-07-30T01:17:04.570Z,22.30
2018-07-30T01:19:33.552Z,22.20
2018-07-30T01:22:02.561Z,22.00
2018-07-30T01:24:31.545Z,22.00
2018-07-30T01:27:00.657Z,21.90
2018-07-30T01:29:29.658Z,21.70
2018-07-30T01:31:58.651Z,21.60
2018-07-30T01:34:27.716Z,21.60
2018-07-30T01:36:56.851Z,21.50
2018-07-30T01:39:25.851Z,21.40
2018-07-30T01:41:54.955Z,21.40
2018-07-30T01:44:23.930Z,21.20
2018-07-30T01:49:21.525Z,21.20
2018-07-30T01:51:50.632Z,21.10
2018-07-30T01:54:19.760Z,21.10
2018-07-30T01:56:48.827Z,21.10
2018-07-30T01:59:18.552Z,21.00
2018-07-30T02:01:47.744Z,21.00
2018-07-30T02:04:16.841Z,21.00
2018-07-30T02:06:45.944Z,20.90
2018-07-30T02:09:15.119Z,20.90
2018-07-30T02:14:13.130Z,20.80
2018-07-30T02:16:42.545Z,20.80
2018-07-30T02:19:12.262Z,20.80
2018-07-30T02:21:41.476Z,20.80
2018-07-30T02:24:10.662Z,20.70
2018-07-30T02:26:39.656Z,20.70
2018-07-30T02:29:08.759Z,20.60
2018-07-30T02:31:37.881Z,20.60
2018-07-30T02:34:14.152Z,20.60
2018-07-30T02:36:43.424Z,20.60
2018-07-30T02:39:14.140Z,20.50
2018-07-30T02:41:43.370Z,20.50
2018-07-30T02:44:12.535Z,20.50
2018-07-30T02:46:41.517Z,20.50
2018-07-30T02:49:11.493Z,20.40
2018-07-30T02:51:40.788Z,20.40
2018-07-30T02:54:10.171Z,20.40
2018-07-30T02:56:39.155Z,20.40
2018-07-30T03:01:36.875Z,20.40
2018-07-30T03:04:05.933Z,20.40
2018-07-30T03:06:35.070Z,20.40
2018-07-30T03:09:06.127Z,20.30
2018-07-30T03:11:35.230Z,20.30
2018-07-30T03:14:04.312Z,20.40
2018-07-30T03:16:33.419Z,20.40
2018-07-30T03:19:02.412Z,20.40
2018-07-30T03:21:31.509Z,20.40
2018-07-30T03:24:00.608Z,20.40
2018-07-30T03:26:29.725Z,20.40
2018-07-30T03:28:59.320Z,20.40
2018-07-30T03:31:28.419Z,20.50
2018-07-30T03:33:57.517Z,20.50
2018-07-30T03:36:26.609Z,20.50
2018-07-30T03:38:55.921Z,20.40
2018-07-30T03:41:25.015Z,20.40
2018-07-30T03:43:54.141Z,20.40
2018-07-30T03:46:23.320Z,20.40
2018-07-30T03:48:52.931Z,20.30
2018-07-30T03:51:21.997Z,20.30
2018-07-30T03:53:51.129Z,20.30
2018-07-30T03:56:20.231Z,20.30
2018-07-30T03:58:49.332Z,20.30
2018-07-30T04:01:18.405Z,20.20
2018-07-30T04:03:47.437Z,20.20
2018-07-30T04:06:16.614Z,20.20
2018-07-30T04:08:45.725Z,20.10
2018-07-30T04:11:14.717Z,20.10
2018-07-30T04:13:43.852Z,20.10
2018-07-30T04:16:12.925Z,20.10
2018-07-30T04:18:42.005Z,20.10
2018-07-30T04:23:40.327Z,20.20
2018-07-30T04:26:09.297Z,20.30
2018-07-30T04:31:07.116Z,20.40
2018-07-30T04:33:36.199Z,20.50
2018-07-30T04:36:05.457Z,20.60
2018-07-30T04:38:34.429Z,20.60
2018-07-30T04:41:03.611Z,20.70
2018-07-30T04:43:32.732Z,20.80
2018-07-30T04:46:01.740Z,21.00
2018-07-30T04:48:31.321Z,21.00
2018-07-30T04:51:00.514Z,21.20
2018-07-30T04:53:29.469Z,21.30
2018-07-30T04:55:58.623Z,21.50
2018-07-30T04:58:27.597Z,21.60
2018-07-30T05:00:56.708Z,21.70
2018-07-30T05:03:25.677Z,21.80
2018-07-30T05:05:54.704Z,22.10
2018-07-30T05:08:23.699Z,22.20
2018-07-30T05:10:52.683Z,22.40
2018-07-30T05:15:50.393Z,22.90
2018-07-30T05:18:19.590Z,23.30
2018-07-30T05:20:48.688Z,23.70
2018-07-30T05:23:17.690Z,24.10
2018-07-30T05:25:46.886Z,24.50
2018-07-30T05:28:15.895Z,24.70
2018-07-30T05:30:44.888Z,24.80
2018-07-30T05:33:14.077Z,24.90
2018-07-30T05:35:43.048Z,25.00
2018-07-30T05:38:12.083Z,25.30
2018-07-30T05:40:41.275Z,25.60
2018-07-30T05:43:10.478Z,26.00
2018-07-30T05:45:39.494Z,26.40
2018-07-30T05:48:08.542Z,26.50
2018-07-30T05:50:37.700Z,26.90
2018-07-30T05:53:06.748Z,26.90
2018-07-30T05:55:35.871Z,26.90
2018-07-30T05:58:05.074Z,26.70
2018-07-30T06:00:34.790Z,26.40
2018-07-30T06:03:03.990Z,26.20
2018-07-30T06:05:33.161Z,26.10
2018-07-30T06:08:02.193Z,26.10
2018-07-30T06:10:31.289Z,26.30
2018-07-30T06:13:00.494Z,26.30
2018-07-30T06:15:29.690Z,26.50
2018-07-30T06:17:58.686Z,27.00
2018-07-30T06:20:27.776Z,27.60
2018-07-30T06:22:56.987Z,28.10
2018-07-30T06:25:26.086Z,28.30
2018-07-30T06:27:55.306Z,28.50
2018-07-30T06:30:24.493Z,29.00
2018-07-30T06:32:53.591Z,29.40
2018-07-30T06:35:22.557Z,29.70
2018-07-30T06:37:51.593Z,29.60
2018-07-30T06:40:20.659Z,29.50
2018-07-30T06:42:49.782Z,29.70
2018-07-30T06:45:18.786Z,29.90
2018-07-30T06:47:47.881Z,29.90
2018-07-30T06:50:16.972Z,30.50
2018-07-30T06:52:46.183Z,31.10
2018-07-30T06:55:15.242Z,31.40
2018-07-30T06:57:44.376Z,31.50
2018-07-30T07:00:13.583Z,32.20
2018-07-30T07:02:42.677Z,32.50
2018-07-30T07:05:12.392Z,33.40
2018-07-30T07:07:41.493Z,34.20
2018-07-30T07:10:11.727Z,34.20
2018-07-30T07:12:40.925Z,34.40
2018-07-30T07:15:12.611Z,34.20
2018-07-30T07:17:42.288Z,34.80
2018-07-30T07:20:11.392Z,35.40
2018-07-30T07:22:40.491Z,35.40
2018-07-30T07:25:09.590Z,35.50
2018-07-30T07:27:38.703Z,35.60
2018-07-30T07:30:08.817Z,35.00
2018-07-30T07:32:37.950Z,36.20
2018-07-30T07:35:07.521Z,36.20
2018-07-30T07:37:36.634Z,35.90
2018-07-30T07:40:06.814Z,36.00
2018-07-30T07:42:35.779Z,35.30
2018-07-30T07:45:05.890Z,35.90
2018-07-30T07:47:34.960Z,37.30
2018-07-30T07:50:04.517Z,38.20
2018-07-30T07:52:33.568Z,36.90
2018-07-30T07:55:02.638Z,36.90
2018-07-30T07:57:31.671Z,36.10
2018-07-30T08:00:00.666Z,37.60
2018-07-30T08:02:29.759Z,35.80
2018-07-30T08:04:59.672Z,34.80
2018-07-30T08:07:28.731Z,36.30
2018-07-30T08:09:57.843Z,38.30
2018-07-30T08:12:26.832Z,39.40
2018-07-30T08:14:55.869Z,37.60
2018-07-30T08:17:25.071Z,35.60
2018-07-30T08:19:54.280Z,34.20
2018-07-30T08:22:23.408Z,33.50
2018-07-30T08:24:53.903Z,33.00
2018-07-30T08:27:23.025Z,33.30
2018-07-30T08:29:52.011Z,33.20
2018-07-30T08:32:21.112Z,33.10
2018-07-30T08:34:50.094Z,33.00
2018-07-30T08:37:19.222Z,32.60
2018-07-30T08:39:48.397Z,32.40
2018-07-30T08:42:17.475Z,32.70
2018-07-30T08:44:46.495Z,32.80
2018-07-30T08:47:15.496Z,33.00
2018-07-30T08:49:44.560Z,33.50
2018-07-30T08:52:13.589Z,33.40
2018-07-30T08:54:42.771Z,34.00
2018-07-30T08:57:11.873Z,35.10
2018-07-30T08:59:40.988Z,34.00
2018-07-30T09:02:10.071Z,33.50
2018-07-30T09:04:39.187Z,33.50
2018-07-30T09:07:08.393Z,33.90
2018-07-30T09:12:06.178Z,38.30
2018-07-30T09:14:35.181Z,39.00
2018-07-30T09:17:04.195Z,39.00
2018-07-30T09:19:33.267Z,39.20
2018-07-30T09:22:02.473Z,38.60
2018-07-30T09:24:31.478Z,38.50
2018-07-30T09:27:00.572Z,37.90
2018-07-30T09:29:29.668Z,37.60
2018-07-30T09:31:58.972Z,38.10
2018-07-30T09:34:28.124Z,37.30
2018-07-30T09:36:57.272Z,36.20
2018-07-30T09:39:26.426Z,36.80
2018-07-30T09:41:55.673Z,37.90
2018-07-30T09:44:24.894Z,37.80
2018-07-30T09:46:53.979Z,38.20
2018-07-30T09:49:23.111Z,38.90
2018-07-30T09:51:52.282Z,39.00
2018-07-30T09:54:21.279Z,38.70
2018-07-30T09:56:50.706Z,38.20
2018-07-30T09:59:19.740Z,37.10
2018-07-30T10:04:17.364Z,35.60
2018-07-30T10:06:46.794Z,35.20
2018-07-30T10:09:15.871Z,34.60
2018-07-30T10:11:44.904Z,34.80
2018-07-30T10:14:13.951Z,34.50
2018-07-30T10:19:12.524Z,35.10
2018-07-30T10:21:41.674Z,34.80
2018-07-30T10:24:10.677Z,34.40
2018-07-30T10:26:40.206Z,34.10
2018-07-30T10:29:09.380Z,33.90
2018-07-30T10:31:38.423Z,33.50
2018-07-30T10:34:07.476Z,33.40
2018-07-30T10:36:36.677Z,33.30
2018-07-30T10:39:07.580Z,33.50
2018-07-30T10:41:37.027Z,33.40
2018-07-30T10:44:06.122Z,33.80
2018-07-30T10:46:35.122Z,34.20
2018-07-30T10:49:04.154Z,33.80
2018-07-30T10:51:33.215Z,33.70
2018-07-30T10:54:02.664Z,33.50
2018-07-30T10:56:31.724Z,34.20
2018-07-30T10:59:00.822Z,34.60
2018-07-30T11:01:29.932Z,34.70
2018-07-30T11:03:59.122Z,35.20
2018-07-30T11:06:28.122Z,35.20
2018-07-30T11:08:57.220Z,35.90
2018-07-30T11:11:26.525Z,37.60
2018-07-30T11:13:55.482Z,37.90
2018-07-30T11:18:54.127Z,38.20
2018-07-30T11:21:23.162Z,38.70
2018-07-30T11:23:52.142Z,38.70
2018-07-30T11:26:22.039Z,39.80
2018-07-30T11:28:51.245Z,39.80
2018-07-30T11:31:20.366Z,38.70
2018-07-30T11:33:49.543Z,40.60
2018-07-30T11:36:18.758Z,39.30
2018-07-30T11:38:47.936Z,39.80
2018-07-30T11:41:17.045Z,40.00
2018-07-30T11:43:46.120Z,40.10
2018-07-30T11:46:15.141Z,38.90
2018-07-30T11:48:44.244Z,38.20
2018-07-30T11:51:13.559Z,37.90
2018-07-30T11:53:42.561Z,38.30
2018-07-30T11:56:11.599Z,38.30
2018-07-30T11:58:41.263Z,38.30
2018-07-30T12:01:10.567Z,38.00
2018-07-30T12:03:39.899Z,39.90
2018-07-30T12:06:09.065Z,41.10
2018-07-30T12:08:38.501Z,41.80
2018-07-30T12:11:07.564Z,41.50
2018-07-30T12:13:36.602Z,40.00
2018-07-30T12:16:05.661Z,39.60
2018-07-30T12:18:34.760Z,40.40
2018-07-30T12:21:03.718Z,38.40
2018-07-30T12:23:32.885Z,39.30
2018-07-30T12:26:01.906Z,39.60
2018-07-30T12:28:30.937Z,39.80
2018-07-30T12:31:00.776Z,40.10
2018-07-30T12:33:29.783Z,40.10
2018-07-30T12:35:58.792Z,40.40
2018-07-30T12:38:29.516Z,40.30
2018-07-30T12:41:01.817Z,39.40
2018-07-30T12:43:31.082Z,40.10
2018-07-30T12:46:00.176Z,39.90
2018-07-30T12:48:29.328Z,39.80
2018-07-30T12:50:58.577Z,39.60
2018-07-30T12:53:27.827Z,39.40
2018-07-30T12:55:56.985Z,39.00
2018-07-30T12:58:26.130Z,38.30
2018-07-30T13:00:55.122Z,37.50
2018-07-30T13:03:24.177Z,37.00
2018-07-30T13:05:53.379Z,36.90
2018-07-30T13:08:22.642Z,37.10
2018-07-30T13:10:52.003Z,37.60
2018-07-30T13:13:21.089Z,38.10
2018-07-30T13:15:50.289Z,38.60
2018-07-30T13:18:19.286Z,38.60
2018-07-30T13:20:49.233Z,38.60
2018-07-30T13:23:18.294Z,38.70
2018-07-30T13:25:47.324Z,38.50
2018-07-30T13:28:16.398Z,38.90
2018-07-30T13:30:45.566Z,38.40
2018-07-30T13:33:14.699Z,37.60
2018-07-30T13:35:43.800Z,37.30
2018-07-30T13:38:12.903Z,37.60
2018-07-30T13:40:42.101Z,37.90
2018-07-30T13:43:11.100Z,37.50
2018-07-30T13:45:40.127Z,37.10
2018-07-30T13:48:09.212Z,36.30
2018-07-30T13:50:38.189Z,35.90
2018-07-30T13:53:07.309Z,35.90
2018-07-30T13:55:36.519Z,36.50
2018-07-30T13:58:05.898Z,37.30
2018-07-30T14:00:34.907Z,38.00
2018-07-30T14:03:03.923Z,38.40
2018-07-30T14:05:32.989Z,38.10
2018-07-30T14:08:02.091Z,38.30
2018-07-30T14:10:31.635Z,38.50
2018-07-30T14:13:00.762Z,37.60
2018-07-30T14:15:29.754Z,37.10
2018-07-30T14:17:58.921Z,37.70
2018-07-30T14:20:27.995Z,38.00
2018-07-30T14:22:57.093Z,38.50
2018-07-30T14:25:26.131Z,38.80
2018-07-30T14:27:55.210Z,39.60
2018-07-30T14:30:25.315Z,39.80
2018-07-30T14:32:54.719Z,39.70
2018-07-30T14:35:24.171Z,39.50
2018-07-30T14:37:53.228Z,40.10
2018-07-30T14:40:22.243Z,40.60
2018-07-30T14:42:51.328Z,40.80
2018-07-30T14:45:21.253Z,39.70
2018-07-30T14:47:50.343Z,38.60
2018-07-30T14:50:19.416Z,37.60
2018-07-30T14:52:48.423Z,37.00
2018-07-30T14:55:17.497Z,37.10
2018-07-30T14:57:46.636Z,37.20
2018-07-30T15:00:15.734Z,37.20
2018-07-30T15:02:45.550Z,36.90
2018-07-30T15:05:18.969Z,36.50
2018-07-30T15:07:48.238Z,36.30
2018-07-30T15:10:17.212Z,35.70
2018-07-30T15:12:46.243Z,35.60
2018-07-30T15:15:15.275Z,35.90
2018-07-30T15:17:44.507Z,35.90
2018-07-30T15:22:42.497Z,36.20
2018-07-30T15:25:11.571Z,36.00
2018-07-30T15:27:40.572Z,36.30
2018-07-30T15:30:09.570Z,37.00
2018-07-30T15:32:38.626Z,37.10
2018-07-30T15:35:07.850Z,37.30
2018-07-30T15:37:36.860Z,37.30
2018-07-30T15:40:06.092Z,37.20
2018-07-30T15:42:35.219Z,37.30
2018-07-30T15:45:04.743Z,37.40
2018-07-30T15:47:33.913Z,36.80
2018-07-30T15:50:04.171Z,36.40
2018-07-30T15:52:33.183Z,35.70
2018-07-30T15:55:02.375Z,35.10
2018-07-30T15:57:31.463Z,35.00
2018-07-30T16:00:00.502Z,34.80
2018-07-30T16:02:30.604Z,34.60
2018-07-30T16:04:59.778Z,34.40
2018-07-30T16:07:28.783Z,34.30
2018-07-30T16:09:57.983Z,34.20
2018-07-30T16:12:27.189Z,34.30
2018-07-30T16:14:56.387Z,34.30
2018-07-30T16:17:25.594Z,34.30
2018-07-30T16:19:54.688Z,34.30
2018-07-30T16:22:23.726Z,34.00
2018-07-30T16:24:52.670Z,34.00
2018-07-30T16:27:21.779Z,33.80
2018-07-30T16:29:50.911Z,33.70
2018-07-30T16:32:19.981Z,33.60
2018-07-30T16:34:49.187Z,33.60
2018-07-30T16:37:18.273Z,33.50
2018-07-30T16:39:47.397Z,33.50
2018-07-30T16:42:16.795Z,33.30
2018-07-30T16:44:45.999Z,33.30
2018-07-30T16:47:15.535Z,33.30
2018-07-30T16:49:44.595Z,33.30
2018-07-30T16:52:13.595Z,33.30
2018-07-30T16:54:42.642Z,33.10
2018-07-30T16:57:12.621Z,33.00
2018-07-30T16:59:41.600Z,33.00
2018-07-30T17:02:10.540Z,32.90
2018-07-30T17:04:39.573Z,32.90
2018-07-30T17:07:08.693Z,32.90
2018-07-30T17:09:38.310Z,32.90
2018-07-30T17:12:07.622Z,32.80
2018-07-30T17:14:36.712Z,32.70
2018-07-30T17:17:05.916Z,32.70
2018-07-30T17:19:34.932Z,32.70
2018-07-30T17:22:04.251Z,32.60
2018-07-30T17:24:33.314Z,32.50
2018-07-30T17:27:02.619Z,32.50
2018-07-30T17:29:31.722Z,32.40
2018-07-30T17:32:00.917Z,32.40
2018-07-30T17:34:30.015Z,32.30
2018-07-30T17:36:58.996Z,32.30
2018-07-30T17:39:28.041Z,32.20
2018-07-30T17:41:58.736Z,32.20
2018-07-30T17:44:29.456Z,32.10
2018-07-30T17:51:55.663Z,32.00
2018-07-30T17:54:25.681Z,31.90
2018-07-30T17:56:54.778Z,31.90
2018-07-30T17:59:24.319Z,31.80
2018-07-30T18:01:53.386Z,31.70
2018-07-30T18:04:22.997Z,31.60
2018-07-30T18:06:52.011Z,31.50
2018-07-30T18:09:21.134Z,31.40
2018-07-30T18:11:50.131Z,31.30
2018-07-30T18:14:20.893Z,31.30
2018-07-30T18:16:49.959Z,31.20
2018-07-30T18:19:19.142Z,31.10
2018-07-30T18:21:48.334Z,31.00
2018-07-30T18:24:17.314Z,30.90
2018-07-30T18:26:46.632Z,30.80
2018-07-30T18:29:15.652Z,30.70
2018-07-30T18:31:44.819Z,30.60
2018-07-30T18:34:13.969Z,30.60
2018-07-30T18:36:43.036Z,30.50
2018-07-30T18:39:12.804Z,30.40
2018-07-30T18:41:43.197Z,30.30
2018-07-30T18:44:12.893Z,30.30
2018-07-30T18:46:42.495Z,30.20
2018-07-30T18:49:11.843Z,30.10
2018-07-30T18:51:40.899Z,30.00
2018-07-30T18:54:10.017Z,29.90
2018-07-30T18:56:39.308Z,29.80
2018-07-30T18:59:09.091Z,29.70
2018-07-30T19:04:07.260Z,29.50
2018-07-30T19:06:36.453Z,29.50
2018-07-30T19:09:07.886Z,29.40
2018-07-30T19:11:37.228Z,29.30
2018-07-30T19:14:07.142Z,29.20
2018-07-30T19:16:36.485Z,29.10
2018-07-30T19:19:06.504Z,29.00
2018-07-30T19:21:37.190Z,28.90
2018-07-30T19:24:06.682Z,28.90
2018-07-30T19:26:35.798Z,28.80
2018-07-30T19:29:05.050Z,28.70
2018-07-30T19:31:34.373Z,28.60
2018-07-30T19:34:03.654Z,28.60
2018-07-30T19:39:01.568Z,28.50
2018-07-30T19:41:31.076Z,28.40
2018-07-30T19:44:00.538Z,28.30
2018-07-30T19:46:30.303Z,28.30
2018-07-30T19:48:59.696Z,28.20
2018-07-30T19:51:29.123Z,28.00
2018-07-30T19:53:58.632Z,28.00
2018-07-30T19:56:29.254Z,27.90
2018-07-30T19:58:59.332Z,27.80
2018-07-30T20:01:28.729Z,27.70
2018-07-30T20:03:58.013Z,27.70
2018-07-30T20:06:27.495Z,27.60
2018-07-30T20:08:56.800Z,27.50
2018-07-30T20:11:26.012Z,27.60
2018-07-30T20:13:55.787Z,27.60
2018-07-30T20:16:25.463Z,27.60
2018-07-30T20:18:54.772Z,27.60
2018-07-30T20:21:24.027Z,27.60
2018-07-30T20:23:53.336Z,27.60
2018-07-30T20:26:22.579Z,27.60
2018-07-30T20:28:52.140Z,27.50
2018-07-30T20:31:25.463Z,27.50
2018-07-30T20:33:56.105Z,27.50
2018-07-30T20:36:26.301Z,27.40
2018-07-30T20:38:55.512Z,27.40
2018-07-30T20:41:25.537Z,27.40
2018-07-30T20:43:54.826Z,27.40
2018-07-30T20:46:24.129Z,27.40
2018-07-30T20:48:53.178Z,27.40
2018-07-30T20:51:22.969Z,27.40
2018-07-30T20:53:52.041Z,27.40
2018-07-30T20:56:21.146Z,27.40
2018-07-30T20:58:50.248Z,27.30
2018-07-30T21:01:19.266Z,27.30
2018-07-30T21:03:48.337Z,27.30
2018-07-30T21:06:17.331Z,27.20
2018-07-30T21:08:46.767Z,27.10
2018-07-30T21:11:15.940Z,27.10
2018-07-30T21:13:44.946Z,27.10
2018-07-30T21:16:13.915Z,27.10
2018-07-30T21:18:43.038Z,27.10
2018-07-30T21:23:41.157Z,27.10
2018-07-30T21:26:10.336Z,27.10
2018-07-30T21:28:39.429Z,27.00
2018-07-30T21:31:08.530Z,27.00
2018-07-30T21:33:37.634Z,27.00
2018-07-30T21:36:06.831Z,27.00
2018-07-30T21:38:36.044Z,26.90
2018-07-30T21:41:05.336Z,27.00
2018-07-30T21:43:34.645Z,27.00
2018-07-30T21:46:03.845Z,27.00
2018-07-30T21:48:33.078Z,27.00
2018-07-30T21:51:02.057Z,26.90
2018-07-30T21:53:30.993Z,26.90
2018-07-30T21:56:00.036Z,26.90
2018-07-30T21:58:29.155Z,26.90
2018-07-30T22:00:59.066Z,26.90
2018-07-30T22:03:28.358Z,26.80
2018-07-30T22:05:59.419Z,26.80
2018-07-30T22:08:28.909Z,26.80
2018-07-30T22:10:57.907Z,26.70
2018-07-30T22:13:26.903Z,26.70
2018-07-30T22:15:56.287Z,26.70
2018-07-30T22:18:25.915Z,26.70
2018-07-30T22:20:56.101Z,26.60
2018-07-30T22:23:25.140Z,26.60
2018-07-30T22:25:54.140Z,26.50
2018-07-30T22:28:23.250Z,26.50
2018-07-30T22:30:52.360Z,26.50
2018-07-30T22:33:21.365Z,26.50
2018-07-30T22:35:50.537Z,26.50
2018-07-30T22:38:19.636Z,26.40
2018-07-30T22:40:48.732Z,26.40
2018-07-30T22:43:17.845Z,26.30
2018-07-30T22:45:46.925Z,26.30
2018-07-30T22:48:16.041Z,26.20
2018-07-30T22:50:45.234Z,26.20
2018-07-30T22:55:45.786Z,26.10
2018-07-30T22:58:15.194Z,26.10
2018-07-30T23:00:44.447Z,26.00
2018-07-30T23:03:13.493Z,26.10
2018-07-30T23:05:49.263Z,26.00
2018-07-30T23:08:18.758Z,26.00
2018-07-30T23:10:47.955Z,26.00
2018-07-30T23:13:16.967Z,26.00
2018-07-30T23:15:46.062Z,25.90
2018-07-30T23:18:15.148Z,25.90
2018-07-30T23:20:44.276Z,25.90
2018-07-30T23:23:13.450Z,25.80
2018-07-30T23:25:42.548Z,25.80
2018-07-30T23:28:11.758Z,25.70
2018-07-30T23:30:40.766Z,25.70
2018-07-30T23:33:09.847Z,25.60
2018-07-30T23:35:38.946Z,25.60
2018-07-30T23:38:07.970Z,25.60
2018-07-30T23:40:37.044Z,25.50
2018-07-30T23:43:06.038Z,25.50
2018-07-30T23:45:35.240Z,25.40
2018-07-30T23:48:04.264Z,25.40
2018-07-30T23:50:33.440Z,25.40
2018-07-30T23:53:02.649Z,25.30
2018-07-30T23:55:32.560Z,25.30
2018-07-30T23:58:01.532Z,25.30
